Decoded Metar for LFOB (BEAUVAIS in FRANCE) (IATA:BVA) | Meteo·Mobile Aviation Weather
aviador You're here:

LFOB Decoded Metar

BEAUVAIS in FRANCE
Report Time2018-10-18 16:00:00
UTC Time2018-10-18 16:10:59
Flight Rules vfr VFR
Wind040° at 10 kt
W.Decomp.*RWY 04: 10.0 kt HW 0.2 kt RCW
RWY 12: 1.9 kt HW 9.8 kt LCW
W.Rank040° ranks 16
Current wind is above 040° avg. (7.0)
Visibility9999 m
Phenomena:N/A
Clouds:N/A
Expected CloudBase > 2,800 ft AGL from Temp-Dew spread
CeilingNone
Temp17°C (ISA +3)
Dew Point10°C (64% RH)
AAT13.5°C
QNH1022 hPa
Density Alt548 ft
Elevation364 ft
Report Wrong Elevation
Raw Report
METAR LFOB 181600Z AUTO 04010KT CAVOK 17/10 Q1022 NOSIG=

Extra information for LFOB:More info

Metar Taf Metar & Taf Last 4 Metars F.Rules Stats Wind Profile Meteogram Temp Stats Airport Information Weather charts Add Link Nearby VenuesMetar ALERT Operation Metar Decoded Social comments